sensor_id;sensor_type;location;lat;lon;timestamp;temperature;humidity
57108;DHT22;42987;52.916;6.542;2022-11-20T00:00:10;-1.30;99.90
57108;DHT22;42987;52.916;6.542;2022-11-20T00:02:36;-1.30;99.90
57108;DHT22;42987;52.916;6.542;2022-11-20T00:05:02;-1.30;99.90
57108;DHT22;42987;52.916;6.542;2022-11-20T00:07:31;-1.30;99.90
57108;DHT22;42987;52.916;6.542;2022-11-20T00:09:56;-1.40;99.90
57108;DHT22;42987;52.916;6.542;2022-11-20T00:12:22;-1.30;99.90
57108;DHT22;42987;52.916;6.542;2022-11-20T00:14:48;-1.30;99.90
57108;DHT22;42987;52.916;6.542;2022-11-20T00:17:14;-1.30;99.90
57108;DHT22;42987;52.916;6.542;2022-11-20T00:19:39;-1.20;99.90
57108;DHT22;42987;52.916;6.542;2022-11-20T00:22:05;-1.30;99.90
57108;DHT22;42987;52.916;6.542;2022-11-20T00:24:31;-1.20;99.90
57108;DHT22;42987;52.916;6.542;2022-11-20T00:26:57;-1.20;99.90
57108;DHT22;42987;52.916;6.542;2022-11-20T00:29:22;-1.20;99.90
57108;DHT22;42987;52.916;6.542;2022-11-20T00:31:48;-1.20;99.90
57108;DHT22;42987;52.916;6.542;2022-11-20T00:34:14;-1.10;99.90
57108;DHT22;42987;52.916;6.542;2022-11-20T00:36:40;-1.10;99.90
57108;DHT22;42987;52.916;6.542;2022-11-20T00:39:08;-1.10;99.90
57108;DHT22;42987;52.916;6.542;2022-11-20T00:41:34;-1.10;99.90
57108;DHT22;42987;52.916;6.542;2022-11-20T00:44:00;-1.10;99.90
57108;DHT22;42987;52.916;6.542;2022-11-20T00:46:27;-1.10;99.90
57108;DHT22;42987;52.916;6.542;2022-11-20T00:48:53;-1.00;99.90
57108;DHT22;42987;52.916;6.542;2022-11-20T00:51:21;-1.00;99.90
57108;DHT22;42987;52.916;6.542;2022-11-20T00:53:48;-1.00;99.90
57108;DHT22;42987;52.916;6.542;2022-11-20T00:56:16;-0.90;99.90
57108;DHT22;42987;52.916;6.542;2022-11-20T00:58:44;-0.90;99.90
57108;DHT22;42987;52.916;6.542;2022-11-20T01:01:19;-0.80;99.90
57108;DHT22;42987;52.916;6.542;2022-11-20T01:03:47;-0.90;99.90
57108;DHT22;42987;52.916;6.542;2022-11-20T01:06:20;-0.80;99.90
57108;DHT22;42987;52.916;6.542;2022-11-20T01:08:47;-0.80;99.90
57108;DHT22;42987;52.916;6.542;2022-11-20T01:11:19;-0.80;99.90
57108;DHT22;42987;52.916;6.542;2022-11-20T01:13:47;-0.80;99.90
57108;DHT22;42987;52.916;6.542;2022-11-20T01:16:21;-0.70;99.90
57108;DHT22;42987;52.916;6.542;2022-11-20T01:18:49;-0.70;99.90
57108;DHT22;42987;52.916;6.542;2022-11-20T01:21:18;-0.70;99.90
57108;DHT22;42987;52.916;6.542;2022-11-20T01:23:45;-0.70;99.90
57108;DHT22;42987;52.916;6.542;2022-11-20T01:26:16;-0.70;99.90
57108;DHT22;42987;52.916;6.542;2022-11-20T01:28:43;-0.70;99.90
57108;DHT22;42987;52.916;6.542;2022-11-20T01:33:41;-0.70;99.90
57108;DHT22;42987;52.916;6.542;2022-11-20T01:36:08;-0.70;99.90
57108;DHT22;42987;52.916;6.542;2022-11-20T01:38:34;-0.70;99.90
57108;DHT22;42987;52.916;6.542;2022-11-20T01:41:00;-0.60;99.90
57108;DHT22;42987;52.916;6.542;2022-11-20T01:43:26;-0.70;99.90
57108;DHT22;42987;52.916;6.542;2022-11-20T01:46:16;-0.60;99.90
57108;DHT22;42987;52.916;6.542;2022-11-20T01:48:51;-0.60;99.90
57108;DHT22;42987;52.916;6.542;2022-11-20T01:54:00;-0.60;99.90
57108;DHT22;42987;52.916;6.542;2022-11-20T01:56:27;-0.60;99.90
57108;DHT22;42987;52.916;6.542;2022-11-20T01:58:59;-0.60;99.90
57108;DHT22;42987;52.916;6.542;2022-11-20T02:01:27;-0.60;99.90
57108;DHT22;42987;52.916;6.542;2022-11-20T02:03:53;-0.60;99.90
57108;DHT22;42987;52.916;6.542;2022-11-20T02:06:24;-0.50;99.90
57108;DHT22;42987;52.916;6.542;2022-11-20T02:08:51;-0.60;99.90
57108;DHT22;42987;52.916;6.542;2022-11-20T02:11:18;-0.50;99.90
57108;DHT22;42987;52.916;6.542;2022-11-20T02:13:44;-0.50;99.90
57108;DHT22;42987;52.916;6.542;2022-11-20T02:16:32;-0.50;99.90
57108;DHT22;42987;52.916;6.542;2022-11-20T02:19:01;-0.50;99.90
57108;DHT22;42987;52.916;6.542;2022-11-20T02:21:35;-0.50;99.90
57108;DHT22;42987;52.916;6.542;2022-11-20T02:24:08;-0.50;99.90
57108;DHT22;42987;52.916;6.542;2022-11-20T02:29:32;-0.40;99.90
57108;DHT22;42987;52.916;6.542;2022-11-20T02:32:00;-0.40;99.90
57108;DHT22;42987;52.916;6.542;2022-11-20T02:34:27;-0.40;99.90
57108;DHT22;42987;52.916;6.542;2022-11-20T02:36:54;-0.40;99.90
57108;DHT22;42987;52.916;6.542;2022-11-20T02:39:22;-0.40;99.90
57108;DHT22;42987;52.916;6.542;2022-11-20T02:41:53;-0.40;99.90
57108;DHT22;42987;52.916;6.542;2022-11-20T02:44:25;-0.30;99.90
57108;DHT22;42987;52.916;6.542;2022-11-20T02:46:50;-0.40;99.90
57108;DHT22;42987;52.916;6.542;2022-11-20T02:49:16;-0.40;99.90
57108;DHT22;42987;52.916;6.542;2022-11-20T02:51:42;-0.30;99.90
57108;DHT22;42987;52.916;6.542;2022-11-20T02:54:08;-0.30;99.90
57108;DHT22;42987;52.916;6.542;2022-11-20T02:56:33;-0.30;99.90
57108;DHT22;42987;52.916;6.542;2022-11-20T02:58:59;-0.30;99.90
57108;DHT22;42987;52.916;6.542;2022-11-20T03:01:25;-0.30;99.90
57108;DHT22;42987;52.916;6.542;2022-11-20T03:03:51;-0.30;99.90
57108;DHT22;42987;52.916;6.542;2022-11-20T03:06:19;-0.40;99.90
57108;DHT22;42987;52.916;6.542;2022-11-20T03:08:45;-0.30;99.90
57108;DHT22;42987;52.916;6.542;2022-11-20T03:11:11;-0.20;99.90
57108;DHT22;42987;52.916;6.542;2022-11-20T03:13:37;-0.30;99.90
57108;DHT22;42987;52.916;6.542;2022-11-20T03:16:11;-0.30;99.90
57108;DHT22;42987;52.916;6.542;2022-11-20T03:18:37;-0.30;99.90
57108;DHT22;42987;52.916;6.542;2022-11-20T03:21:03;-0.30;99.90
57108;DHT22;42987;52.916;6.542;2022-11-20T03:23:31;-0.30;99.90
57108;DHT22;42987;52.916;6.542;2022-11-20T03:28:36;-0.20;99.90
57108;DHT22;42987;52.916;6.542;2022-11-20T03:31:10;-0.30;99.90
57108;DHT22;42987;52.916;6.542;2022-11-20T03:33:37;-0.20;99.90
57108;DHT22;42987;52.916;6.542;2022-11-20T03:36:05;-0.20;99.90
57108;DHT22;42987;52.916;6.542;2022-11-20T03:38:32;-0.20;99.90
57108;DHT22;42987;52.916;6.542;2022-11-20T03:41:04;-0.20;99.90
57108;DHT22;42987;52.916;6.542;2022-11-20T03:43:31;-0.20;99.90
57108;DHT22;42987;52.916;6.542;2022-11-20T03:45:57;-0.20;99.90
57108;DHT22;42987;52.916;6.542;2022-11-20T03:48:23;-0.20;99.90
57108;DHT22;42987;52.916;6.542;2022-11-20T03:50:49;-0.20;99.90
57108;DHT22;42987;52.916;6.542;2022-11-20T03:53:15;-0.20;99.90
57108;DHT22;42987;52.916;6.542;2022-11-20T03:55:41;-0.20;99.90
57108;DHT22;42987;52.916;6.542;2022-11-20T03:58:08;-0.20;99.90
57108;DHT22;42987;52.916;6.542;2022-11-20T04:00:33;-0.20;99.90
57108;DHT22;42987;52.916;6.542;2022-11-20T04:03:01;-0.20;99.90
57108;DHT22;42987;52.916;6.542;2022-11-20T04:05:27;-0.20;99.90
57108;DHT22;42987;52.916;6.542;2022-11-20T04:07:53;-0.10;99.90
57108;DHT22;42987;52.916;6.542;2022-11-20T04:10:18;-0.10;99.90
57108;DHT22;42987;52.916;6.542;2022-11-20T04:12:44;-0.10;99.90
57108;DHT22;42987;52.916;6.542;2022-11-20T04:15:10;-0.10;99.90
57108;DHT22;42987;52.916;6.542;2022-11-20T04:17:36;-0.10;99.90
57108;DHT22;42987;52.916;6.542;2022-11-20T04:20:02;-0.10;99.90
57108;DHT22;42987;52.916;6.542;2022-11-20T04:22:31;-0.10;99.90
57108;DHT22;42987;52.916;6.542;2022-11-20T04:24:56;-0.10;99.90
57108;DHT22;42987;52.916;6.542;2022-11-20T04:27:22;-0.10;99.90
57108;DHT22;42987;52.916;6.542;2022-11-20T04:29:48;0.00;99.90
57108;DHT22;42987;52.916;6.542;2022-11-20T04:32:14;-0.10;99.90
57108;DHT22;42987;52.916;6.542;2022-11-20T04:34:39;-0.10;99.90
57108;DHT22;42987;52.916;6.542;2022-11-20T04:37:05;-0.10;99.90
57108;DHT22;42987;52.916;6.542;2022-11-20T04:39:31;-0.10;99.90
57108;DHT22;42987;52.916;6.542;2022-11-20T04:41:57;-0.10;99.90
57108;DHT22;42987;52.916;6.542;2022-11-20T04:44:41;-0.10;99.90
57108;DHT22;42987;52.916;6.542;2022-11-20T04:47:07;-0.10;99.90
57108;DHT22;42987;52.916;6.542;2022-11-20T04:49:33;-0.10;99.90
57108;DHT22;42987;52.916;6.542;2022-11-20T04:51:59;-0.10;99.90
57108;DHT22;42987;52.916;6.542;2022-11-20T04:54:25;0.00;99.90
57108;DHT22;42987;52.916;6.542;2022-11-20T04:56:51;0.00;99.90
57108;DHT22;42987;52.916;6.542;2022-11-20T04:59:16;-0.10;99.90
57108;DHT22;42987;52.916;6.542;2022-11-20T05:01:42;0.00;99.90
57108;DHT22;42987;52.916;6.542;2022-11-20T05:04:08;0.00;99.90
57108;DHT22;42987;52.916;6.542;2022-11-20T05:06:34;-0.10;99.90
57108;DHT22;42987;52.916;6.542;2022-11-20T05:08:59;0.00;99.90
57108;DHT22;42987;52.916;6.542;2022-11-20T05:11:26;0.00;99.90
57108;DHT22;42987;52.916;6.542;2022-11-20T05:13:55;0.00;99.90
57108;DHT22;42987;52.916;6.542;2022-11-20T05:16:22;0.00;99.90
57108;DHT22;42987;52.916;6.542;2022-11-20T05:18:50;0.00;99.90
57108;DHT22;42987;52.916;6.542;2022-11-20T05:21:16;0.00;99.90
57108;DHT22;42987;52.916;6.542;2022-11-20T05:23:42;0.00;99.90
57108;DHT22;42987;52.916;6.542;2022-11-20T05:26:16;0.00;99.90
57108;DHT22;42987;52.916;6.542;2022-11-20T05:28:43;0.00;99.90
57108;DHT22;42987;52.916;6.542;2022-11-20T05:31:14;0.00;99.90
57108;DHT22;42987;52.916;6.542;2022-11-20T05:33:41;0.00;99.90
57108;DHT22;42987;52.916;6.542;2022-11-20T05:36:08;0.00;99.90
57108;DHT22;42987;52.916;6.542;2022-11-20T05:38:35;0.00;99.90
57108;DHT22;42987;52.916;6.542;2022-11-20T05:41:11;0.10;99.90
57108;DHT22;42987;52.916;6.542;2022-11-20T05:43:39;0.00;99.90
57108;DHT22;42987;52.916;6.542;2022-11-20T05:46:06;0.00;99.90
57108;DHT22;42987;52.916;6.542;2022-11-20T05:48:33;0.00;99.90
57108;DHT22;42987;52.916;6.542;2022-11-20T05:51:01;0.00;99.90
57108;DHT22;42987;52.916;6.542;2022-11-20T05:53:27;0.20;99.90
57108;DHT22;42987;52.916;6.542;2022-11-20T05:56:04;0.00;99.90
57108;DHT22;42987;52.916;6.542;2022-11-20T05:58:30;0.00;99.90
57108;DHT22;42987;52.916;6.542;2022-11-20T06:03:29;0.10;99.90
57108;DHT22;42987;52.916;6.542;2022-11-20T06:05:55;0.10;99.90
57108;DHT22;42987;52.916;6.542;2022-11-20T06:08:21;0.10;99.90
57108;DHT22;42987;52.916;6.542;2022-11-20T06:10:47;0.10;99.90
57108;DHT22;42987;52.916;6.542;2022-11-20T06:13:12;0.20;99.90
57108;DHT22;42987;52.916;6.542;2022-11-20T06:15:38;0.10;99.90
57108;DHT22;42987;52.916;6.542;2022-11-20T06:18:04;0.10;99.90
57108;DHT22;42987;52.916;6.542;2022-11-20T06:20:30;0.10;99.90
57108;DHT22;42987;52.916;6.542;2022-11-20T06:22:56;0.10;99.90
57108;DHT22;42987;52.916;6.542;2022-11-20T06:25:21;0.10;99.90
57108;DHT22;42987;52.916;6.542;2022-11-20T06:27:47;0.20;99.90
57108;DHT22;42987;52.916;6.542;2022-11-20T06:30:13;0.10;99.90
57108;DHT22;42987;52.916;6.542;2022-11-20T06:32:39;0.10;99.90
57108;DHT22;42987;52.916;6.542;2022-11-20T06:35:06;0.10;99.90
57108;DHT22;42987;52.916;6.542;2022-11-20T06:37:32;0.10;99.90
57108;DHT22;42987;52.916;6.542;2022-11-20T06:39:58;0.20;99.90
57108;DHT22;42987;52.916;6.542;2022-11-20T06:42:27;0.20;99.90
57108;DHT22;42987;52.916;6.542;2022-11-20T06:44:53;0.20;99.90
57108;DHT22;42987;52.916;6.542;2022-11-20T06:47:18;0.20;99.90
57108;DHT22;42987;52.916;6.542;2022-11-20T06:49:44;0.20;99.90
57108;DHT22;42987;52.916;6.542;2022-11-20T06:52:10;0.20;99.90
57108;DHT22;42987;52.916;6.542;2022-11-20T06:54:36;0.20;99.90
57108;DHT22;42987;52.916;6.542;2022-11-20T06:57:01;0.20;99.90
57108;DHT22;42987;52.916;6.542;2022-11-20T06:59:27;0.20;99.90
57108;DHT22;42987;52.916;6.542;2022-11-20T07:01:53;0.30;99.90
57108;DHT22;42987;52.916;6.542;2022-11-20T07:04:19;0.30;99.90
57108;DHT22;42987;52.916;6.542;2022-11-20T07:06:48;0.20;99.90
57108;DHT22;42987;52.916;6.542;2022-11-20T07:09:14;0.30;99.90
57108;DHT22;42987;52.916;6.542;2022-11-20T07:11:39;0.20;99.90
57108;DHT22;42987;52.916;6.542;2022-11-20T07:14:05;0.20;99.90
57108;DHT22;42987;52.916;6.542;2022-11-20T07:16:31;0.20;99.90
57108;DHT22;42987;52.916;6.542;2022-11-20T07:18:57;0.30;99.90
57108;DHT22;42987;52.916;6.542;2022-11-20T07:21:23;0.20;99.90
57108;DHT22;42987;52.916;6.542;2022-11-20T07:23:49;0.30;99.90
57108;DHT22;42987;52.916;6.542;2022-11-20T07:26:15;0.20;99.90
57108;DHT22;42987;52.916;6.542;2022-11-20T07:28:44;0.30;99.90
57108;DHT22;42987;52.916;6.542;2022-11-20T07:31:10;0.30;99.90
57108;DHT22;42987;52.916;6.542;2022-11-20T07:33:35;0.30;99.90
57108;DHT22;42987;52.916;6.542;2022-11-20T07:36:02;0.30;99.90
57108;DHT22;42987;52.916;6.542;2022-11-20T07:38:28;0.30;99.90
57108;DHT22;42987;52.916;6.542;2022-11-20T07:40:55;0.40;99.90
57108;DHT22;42987;52.916;6.542;2022-11-20T07:43:21;0.30;99.90
57108;DHT22;42987;52.916;6.542;2022-11-20T07:45:47;0.40;99.90
57108;DHT22;42987;52.916;6.542;2022-11-20T07:48:13;0.30;99.90
57108;DHT22;42987;52.916;6.542;2022-11-20T07:50:39;0.40;99.90
57108;DHT22;42987;52.916;6.542;2022-11-20T07:53:05;0.40;99.90
57108;DHT22;42987;52.916;6.542;2022-11-20T07:55:31;0.40;99.90
57108;DHT22;42987;52.916;6.542;2022-11-20T07:57:58;0.40;99.90
57108;DHT22;42987;52.916;6.542;2022-11-20T08:00:26;0.50;99.90
57108;DHT22;42987;52.916;6.542;2022-11-20T08:02:52;0.40;99.90
57108;DHT22;42987;52.916;6.542;2022-11-20T08:05:18;0.40;99.90
57108;DHT22;42987;52.916;6.542;2022-11-20T08:07:44;0.40;99.90
57108;DHT22;42987;52.916;6.542;2022-11-20T08:10:13;0.50;99.90
57108;DHT22;42987;52.916;6.542;2022-11-20T08:15:30;0.50;99.90
57108;DHT22;42987;52.916;6.542;2022-11-20T08:18:05;0.50;99.90
57108;DHT22;42987;52.916;6.542;2022-11-20T08:20:31;0.50;99.90
57108;DHT22;42987;52.916;6.542;2022-11-20T08:23:02;0.50;99.90
57108;DHT22;42987;52.916;6.542;2022-11-20T08:25:29;0.60;99.90
57108;DHT22;42987;52.916;6.542;2022-11-20T08:27:59;0.60;99.90
57108;DHT22;42987;52.916;6.542;2022-11-20T08:30:25;0.60;99.90
57108;DHT22;42987;52.916;6.542;2022-11-20T08:32:52;0.60;99.90
57108;DHT22;42987;52.916;6.542;2022-11-20T08:35:18;0.70;99.90
57108;DHT22;42987;52.916;6.542;2022-11-20T08:37:46;0.70;99.90
57108;DHT22;42987;52.916;6.542;2022-11-20T08:40:12;0.80;99.90
57108;DHT22;42987;52.916;6.542;2022-11-20T08:42:49;0.70;99.90
57108;DHT22;42987;52.916;6.542;2022-11-20T08:45:16;0.80;99.90
57108;DHT22;42987;52.916;6.542;2022-11-20T08:47:42;0.80;99.90
57108;DHT22;42987;52.916;6.542;2022-11-20T08:50:13;0.80;99.90
57108;DHT22;42987;52.916;6.542;2022-11-20T08:52:39;0.80;99.90
57108;DHT22;42987;52.916;6.542;2022-11-20T08:55:06;0.90;99.90
57108;DHT22;42987;52.916;6.542;2022-11-20T08:57:33;0.80;99.90
57108;DHT22;42987;52.916;6.542;2022-11-20T08:59:59;0.80;99.90
57108;DHT22;42987;52.916;6.542;2022-11-20T09:02:25;0.90;99.90
57108;DHT22;42987;52.916;6.542;2022-11-20T09:04:51;0.90;99.90
57108;DHT22;42987;52.916;6.542;2022-11-20T09:07:17;0.90;99.90
57108;DHT22;42987;52.916;6.542;2022-11-20T09:09:43;0.90;99.90
57108;DHT22;42987;52.916;6.542;2022-11-20T09:12:08;1.00;99.90
57108;DHT22;42987;52.916;6.542;2022-11-20T09:14:34;1.10;99.90
57108;DHT22;42987;52.916;6.542;2022-11-20T09:17:00;1.00;99.90
57108;DHT22;42987;52.916;6.542;2022-11-20T09:19:26;1.00;99.90
57108;DHT22;42987;52.916;6.542;2022-11-20T09:21:52;1.10;99.90
57108;DHT22;42987;52.916;6.542;2022-11-20T09:24:18;1.10;99.90
57108;DHT22;42987;52.916;6.542;2022-11-20T09:26:44;1.10;99.90
57108;DHT22;42987;52.916;6.542;2022-11-20T09:29:10;1.20;99.90
57108;DHT22;42987;52.916;6.542;2022-11-20T09:31:36;1.20;99.90
57108;DHT22;42987;52.916;6.542;2022-11-20T09:34:02;1.20;99.90
57108;DHT22;42987;52.916;6.542;2022-11-20T09:36:28;1.30;99.90
57108;DHT22;42987;52.916;6.542;2022-11-20T09:38:56;1.30;99.90
57108;DHT22;42987;52.916;6.542;2022-11-20T09:41:35;1.30;99.90
57108;DHT22;42987;52.916;6.542;2022-11-20T09:44:49;1.30;99.90
57108;DHT22;42987;52.916;6.542;2022-11-20T09:55:37;1.50;99.90
57108;DHT22;42987;52.916;6.542;2022-11-20T09:58:06;1.50;99.90
57108;DHT22;42987;52.916;6.542;2022-11-20T10:00:35;1.50;99.90
57108;DHT22;42987;52.916;6.542;2022-11-20T10:03:29;1.60;99.90
57108;DHT22;42987;52.916;6.542;2022-11-20T10:06:00;1.60;99.90
57108;DHT22;42987;52.916;6.542;2022-11-20T10:08:42;1.80;99.90
57108;DHT22;42987;52.916;6.542;2022-11-20T10:17:13;1.80;99.90
57108;DHT22;42987;52.916;6.542;2022-11-20T10:22:46;1.90;99.90
57108;DHT22;42987;52.916;6.542;2022-11-20T10:30:42;2.00;99.90
57108;DHT22;42987;52.916;6.542;2022-11-20T10:33:17;2.00;99.90
57108;DHT22;42987;52.916;6.542;2022-11-20T10:35:45;2.10;99.90
57108;DHT22;42987;52.916;6.542;2022-11-20T10:38:43;2.10;99.90
57108;DHT22;42987;52.916;6.542;2022-11-20T10:41:20;2.10;99.90
57108;DHT22;42987;52.916;6.542;2022-11-20T10:46:43;2.20;99.90
57108;DHT22;42987;52.916;6.542;2022-11-20T10:49:15;2.30;99.90
57108;DHT22;42987;52.916;6.542;2022-11-20T10:54:42;2.30;99.90
57108;DHT22;42987;52.916;6.542;2022-11-20T11:00:12;2.40;99.90
57108;DHT22;42987;52.916;6.542;2022-11-20T11:02:50;2.40;99.90
57108;DHT22;42987;52.916;6.542;2022-11-20T11:07:54;2.50;99.90
57108;DHT22;42987;52.916;6.542;2022-11-20T11:13:02;2.60;99.90
57108;DHT22;42987;52.916;6.542;2022-11-20T11:15:39;2.60;99.90
57108;DHT22;42987;52.916;6.542;2022-11-20T11:18:08;2.70;99.90
57108;DHT22;42987;52.916;6.542;2022-11-20T11:20:34;2.70;99.90
57108;DHT22;42987;52.916;6.542;2022-11-20T11:23:00;2.80;99.90
57108;DHT22;42987;52.916;6.542;2022-11-20T11:25:36;2.70;99.90
57108;DHT22;42987;52.916;6.542;2022-11-20T11:28:20;2.80;99.90
57108;DHT22;42987;52.916;6.542;2022-11-20T11:30:47;2.80;99.90
57108;DHT22;42987;52.916;6.542;2022-11-20T11:33:27;2.80;99.90
57108;DHT22;42987;52.916;6.542;2022-11-20T11:35:59;2.90;99.90
57108;DHT22;42987;52.916;6.542;2022-11-20T11:38:35;2.90;99.90
57108;DHT22;42987;52.916;6.542;2022-11-20T11:41:03;3.00;99.90
57108;DHT22;42987;52.916;6.542;2022-11-20T11:43:34;3.00;99.90
57108;DHT22;42987;52.916;6.542;2022-11-20T11:46:30;3.00;99.90
57108;DHT22;42987;52.916;6.542;2022-11-20T11:49:01;3.10;99.90
57108;DHT22;42987;52.916;6.542;2022-11-20T11:54:37;3.10;99.90
57108;DHT22;42987;52.916;6.542;2022-11-20T12:02:37;3.40;99.90
57108;DHT22;42987;52.916;6.542;2022-11-20T12:05:14;3.50;99.90
57108;DHT22;42987;52.916;6.542;2022-11-20T12:07:59;3.50;99.90
57108;DHT22;42987;52.916;6.542;2022-11-20T12:16:03;3.70;99.90
57108;DHT22;42987;52.916;6.542;2022-11-20T12:18:29;3.70;99.90
57108;DHT22;42987;52.916;6.542;2022-11-20T12:26:11;3.80;99.90
57108;DHT22;42987;52.916;6.542;2022-11-20T12:39:49;3.60;99.90
57108;DHT22;42987;52.916;6.542;2022-11-20T12:42:43;3.60;99.90
57108;DHT22;42987;52.916;6.542;2022-11-20T12:45:41;3.50;99.90
57108;DHT22;42987;52.916;6.542;2022-11-20T12:48:25;3.60;99.90
57108;DHT22;42987;52.916;6.542;2022-11-20T12:56:47;3.60;99.90
57108;DHT22;42987;52.916;6.542;2022-11-20T13:06:46;3.50;99.90
57108;DHT22;42987;52.916;6.542;2022-11-20T13:09:18;3.50;99.90
57108;DHT22;42987;52.916;6.542;2022-11-20T13:15:02;3.40;99.90
57108;DHT22;42987;52.916;6.542;2022-11-20T13:17:41;3.40;99.90
57108;DHT22;42987;52.916;6.542;2022-11-20T13:20:14;3.30;99.90
57108;DHT22;42987;52.916;6.542;2022-11-20T13:22:45;3.30;99.90
57108;DHT22;42987;52.916;6.542;2022-11-20T13:25:28;3.30;99.90
57108;DHT22;42987;52.916;6.542;2022-11-20T13:27:55;3.30;99.90
57108;DHT22;42987;52.916;6.542;2022-11-20T13:30:26;3.30;99.90
57108;DHT22;42987;52.916;6.542;2022-11-20T13:33:21;3.30;99.90
57108;DHT22;42987;52.916;6.542;2022-11-20T13:36:00;3.30;99.90
57108;DHT22;42987;52.916;6.542;2022-11-20T13:38:26;3.20;99.90
57108;DHT22;42987;52.916;6.542;2022-11-20T13:40:59;3.20;99.90
57108;DHT22;42987;52.916;6.542;2022-11-20T13:43:47;3.10;99.90
57108;DHT22;42987;52.916;6.542;2022-11-20T13:46:13;3.00;99.90
57108;DHT22;42987;52.916;6.542;2022-11-20T13:48:45;3.00;99.90
57108;DHT22;42987;52.916;6.542;2022-11-20T14:02:13;3.00;99.90
57108;DHT22;42987;52.916;6.542;2022-11-20T14:04:44;2.90;99.90
57108;DHT22;42987;52.916;6.542;2022-11-20T14:07:10;2.90;99.90
57108;DHT22;42987;52.916;6.542;2022-11-20T14:09:37;2.90;99.90
57108;DHT22;42987;52.916;6.542;2022-11-20T14:12:04;2.90;99.90
57108;DHT22;42987;52.916;6.542;2022-11-20T14:14:51;2.90;99.90
57108;DHT22;42987;52.916;6.542;2022-11-20T14:17:21;2.90;99.90
57108;DHT22;42987;52.916;6.542;2022-11-20T14:19:50;2.90;99.90
57108;DHT22;42987;52.916;6.542;2022-11-20T14:22:22;2.90;99.90
57108;DHT22;42987;52.916;6.542;2022-11-20T14:24:49;2.90;99.90
57108;DHT22;42987;52.916;6.542;2022-11-20T14:27:25;2.90;99.90
57108;DHT22;42987;52.916;6.542;2022-11-20T14:29:51;3.00;99.90
57108;DHT22;42987;52.916;6.542;2022-11-20T14:32:23;2.80;99.90
57108;DHT22;42987;52.916;6.542;2022-11-20T14:34:52;2.90;99.90
57108;DHT22;42987;52.916;6.542;2022-11-20T14:37:24;2.80;99.90
57108;DHT22;42987;52.916;6.542;2022-11-20T14:39:53;2.80;99.90
57108;DHT22;42987;52.916;6.542;2022-11-20T14:42:24;2.80;99.90
57108;DHT22;42987;52.916;6.542;2022-11-20T14:44:54;2.80;99.90
57108;DHT22;42987;52.916;6.542;2022-11-20T14:47:29;2.80;99.90
57108;DHT22;42987;52.916;6.542;2022-11-20T14:49:57;2.70;99.90
57108;DHT22;42987;52.916;6.542;2022-11-20T14:52:27;2.70;99.90
57108;DHT22;42987;52.916;6.542;2022-11-20T14:54:57;2.70;99.90
57108;DHT22;42987;52.916;6.542;2022-11-20T14:57:32;2.70;99.90
57108;DHT22;42987;52.916;6.542;2022-11-20T15:02:34;2.60;99.90
57108;DHT22;42987;52.916;6.542;2022-11-20T15:05:01;2.60;99.90
57108;DHT22;42987;52.916;6.542;2022-11-20T15:08:18;2.60;99.90
57108;DHT22;42987;52.916;6.542;2022-11-20T15:10:20;2.50;99.90
57108;DHT22;42987;52.916;6.542;2022-11-20T15:15:21;2.50;99.90
57108;DHT22;42987;52.916;6.542;2022-11-20T15:17:49;2.40;99.90
57108;DHT22;42987;52.916;6.542;2022-11-20T15:20:17;2.40;99.90
57108;DHT22;42987;52.916;6.542;2022-11-20T15:22:43;2.40;99.90
57108;DHT22;42987;52.916;6.542;2022-11-20T15:25:17;2.40;99.90
57108;DHT22;42987;52.916;6.542;2022-11-20T15:27:44;2.40;99.90
57108;DHT22;42987;52.916;6.542;2022-11-20T15:30:15;2.40;99.90
57108;DHT22;42987;52.916;6.542;2022-11-20T15:32:43;2.40;99.90
57108;DHT22;42987;52.916;6.542;2022-11-20T15:35:13;2.30;99.90
57108;DHT22;42987;52.916;6.542;2022-11-20T15:37:40;2.30;99.90
57108;DHT22;42987;52.916;6.542;2022-11-20T15:40:07;2.30;99.90
57108;DHT22;42987;52.916;6.542;2022-11-20T15:42:33;2.30;99.90
57108;DHT22;42987;52.916;6.542;2022-11-20T15:44:59;2.30;99.90
57108;DHT22;42987;52.916;6.542;2022-11-20T15:47:28;2.30;99.90
57108;DHT22;42987;52.916;6.542;2022-11-20T15:49:55;2.20;99.90
57108;DHT22;42987;52.916;6.542;2022-11-20T15:52:21;2.20;99.90
57108;DHT22;42987;52.916;6.542;2022-11-20T15:54:47;2.20;99.90
57108;DHT22;42987;52.916;6.542;2022-11-20T15:57:13;2.20;99.90
57108;DHT22;42987;52.916;6.542;2022-11-20T15:59:39;2.20;99.90
57108;DHT22;42987;52.916;6.542;2022-11-20T16:02:14;2.20;99.90
57108;DHT22;42987;52.916;6.542;2022-11-20T16:04:41;2.20;99.90
57108;DHT22;42987;52.916;6.542;2022-11-20T16:07:07;2.10;99.90
57108;DHT22;42987;52.916;6.542;2022-11-20T16:09:33;2.10;99.90
57108;DHT22;42987;52.916;6.542;2022-11-20T16:11:59;2.10;99.90
57108;DHT22;42987;52.916;6.542;2022-11-20T16:14:31;2.10;99.90
57108;DHT22;42987;52.916;6.542;2022-11-20T16:17:16;2.10;99.90
57108;DHT22;42987;52.916;6.542;2022-11-20T16:20:01;2.10;99.90
57108;DHT22;42987;52.916;6.542;2022-11-20T16:22:27;2.10;99.90
57108;DHT22;42987;52.916;6.542;2022-11-20T16:24:53;2.10;99.90
57108;DHT22;42987;52.916;6.542;2022-11-20T16:27:19;2.10;99.90
57108;DHT22;42987;52.916;6.542;2022-11-20T16:29:44;2.10;99.90
57108;DHT22;42987;52.916;6.542;2022-11-20T16:32:10;2.00;99.90
57108;DHT22;42987;52.916;6.542;2022-11-20T16:34:37;2.10;99.90
57108;DHT22;42987;52.916;6.542;2022-11-20T16:37:03;2.00;99.90
57108;DHT22;42987;52.916;6.542;2022-11-20T16:39:29;2.00;99.90
57108;DHT22;42987;52.916;6.542;2022-11-20T16:41:55;2.00;99.90
57108;DHT22;42987;52.916;6.542;2022-11-20T16:44:21;2.00;99.90
57108;DHT22;42987;52.916;6.542;2022-11-20T16:46:46;2.00;99.90
57108;DHT22;42987;52.916;6.542;2022-11-20T16:49:13;2.00;99.90
57108;DHT22;42987;52.916;6.542;2022-11-20T16:51:39;2.00;99.90
57108;DHT22;42987;52.916;6.542;2022-11-20T16:54:06;2.00;99.90
57108;DHT22;42987;52.916;6.542;2022-11-20T16:56:33;2.00;99.90
57108;DHT22;42987;52.916;6.542;2022-11-20T16:59:00;2.00;99.90
57108;DHT22;42987;52.916;6.542;2022-11-20T17:01:27;2.00;99.90
57108;DHT22;42987;52.916;6.542;2022-11-20T17:03:59;2.00;99.90
57108;DHT22;42987;52.916;6.542;2022-11-20T17:06:33;2.00;99.90
57108;DHT22;42987;52.916;6.542;2022-11-20T17:08:59;2.00;99.90
57108;DHT22;42987;52.916;6.542;2022-11-20T17:11:26;2.00;99.90
57108;DHT22;42987;52.916;6.542;2022-11-20T17:13:54;2.00;99.90
57108;DHT22;42987;52.916;6.542;2022-11-20T17:16:22;2.00;99.90
57108;DHT22;42987;52.916;6.542;2022-11-20T17:18:48;2.00;99.90
57108;DHT22;42987;52.916;6.542;2022-11-20T17:21:18;2.10;99.90
57108;DHT22;42987;52.916;6.542;2022-11-20T17:23:45;2.00;99.90
57108;DHT22;42987;52.916;6.542;2022-11-20T17:26:17;1.90;99.90
57108;DHT22;42987;52.916;6.542;2022-11-20T17:28:45;2.00;99.90
57108;DHT22;42987;52.916;6.542;2022-11-20T17:31:15;1.90;99.90
57108;DHT22;42987;52.916;6.542;2022-11-20T17:33:43;1.90;99.90
57108;DHT22;42987;52.916;6.542;2022-11-20T17:36:11;1.90;99.90
57108;DHT22;42987;52.916;6.542;2022-11-20T17:38:37;2.00;99.90
57108;DHT22;42987;52.916;6.542;2022-11-20T17:41:05;2.00;99.90
57108;DHT22;42987;52.916;6.542;2022-11-20T17:43:31;2.00;99.90
57108;DHT22;42987;52.916;6.542;2022-11-20T17:46:02;1.90;99.90
57108;DHT22;42987;52.916;6.542;2022-11-20T17:48:29;1.90;99.90